createdAt,value
2023-04-11T00:00:14.835Z,67.69
2023-04-11T00:02:42.326Z,67.85
2023-04-11T00:05:10.042Z,67.90
2023-04-11T00:07:37.332Z,68.40
2023-04-11T00:10:04.930Z,68.77
2023-04-11T00:12:32.190Z,69.01
2023-04-11T00:14:59.479Z,69.00
2023-04-11T00:17:31.425Z,68.82
2023-04-11T00:20:01.849Z,68.62
2023-04-11T00:22:30.737Z,68.38
2023-04-11T00:24:57.994Z,67.80
2023-04-11T00:27:25.470Z,67.51
2023-04-11T00:29:57.750Z,67.39
2023-04-11T00:32:25.257Z,67.28
2023-04-11T00:34:52.536Z,67.07
2023-04-11T00:37:21.623Z,67.01
2023-04-11T00:39:53.109Z,67.14
2023-04-11T00:42:20.448Z,67.28
2023-04-11T00:44:47.816Z,67.37
2023-04-11T00:47:15.103Z,67.32
2023-04-11T00:49:42.306Z,67.43
2023-04-11T00:52:09.657Z,67.48
2023-04-11T00:54:36.918Z,67.65
2023-04-11T00:57:04.614Z,67.27
2023-04-11T00:59:32.381Z,67.78
2023-04-11T01:02:00.116Z,68.04
2023-04-11T01:04:29.519Z,68.13
2023-04-11T01:06:59.694Z,68.26
2023-04-11T01:09:27.493Z,68.53
2023-04-11T01:11:55.193Z,68.74
2023-04-11T01:14:22.454Z,68.55
2023-04-11T01:16:50.819Z,68.31
2023-04-11T01:19:21.714Z,68.15
2023-04-11T01:21:49.911Z,68.20
2023-04-11T01:24:17.146Z,67.99
2023-04-11T01:26:44.680Z,68.00
2023-04-11T01:29:12.120Z,68.01
2023-04-11T01:31:39.472Z,68.23
2023-04-11T01:34:07.450Z,67.84
2023-04-11T01:36:34.859Z,67.55
2023-04-11T01:39:02.096Z,67.56
2023-04-11T01:41:29.527Z,67.31
2023-04-11T01:43:56.954Z,67.65
2023-04-11T01:46:25.073Z,67.86
2023-04-11T01:48:57.579Z,68.26
2023-04-11T01:51:27.228Z,68.55
2023-04-11T01:53:54.795Z,68.93
2023-04-11T01:56:22.289Z,68.80
2023-04-11T01:58:49.583Z,68.68
2023-04-11T02:01:20.249Z,68.81
2023-04-11T02:03:47.739Z,68.97
2023-04-11T02:06:15.590Z,68.91
2023-04-11T02:08:43.780Z,68.90
2023-04-11T02:11:11.277Z,69.07
2023-04-11T02:13:38.893Z,69.56
2023-04-11T02:16:11.734Z,69.86
2023-04-11T02:18:39.636Z,68.59
2023-04-11T02:21:06.991Z,69.04
2023-04-11T02:23:34.458Z,69.25
2023-04-11T02:26:02.213Z,69.40
2023-04-11T02:28:29.649Z,69.49
2023-04-11T02:30:57.007Z,69.72
2023-04-11T02:33:24.464Z,69.26
2023-04-11T02:35:52.132Z,69.47
2023-04-11T02:38:19.869Z,69.77
2023-04-11T02:40:47.266Z,70.00
2023-04-11T02:43:15.054Z,69.71
2023-04-11T02:45:42.579Z,70.01
2023-04-11T02:48:11.739Z,71.71
2023-04-11T02:50:44.061Z,72.66
2023-04-11T02:53:12.010Z,72.68
2023-04-11T02:55:46.026Z,72.40
2023-04-11T02:58:17.902Z,72.38
2023-04-11T03:00:48.898Z,72.98
2023-04-11T03:03:16.467Z,73.03
2023-04-11T03:05:47.011Z,73.33
2023-04-11T03:08:17.220Z,74.45
2023-04-11T03:10:50.620Z,75.00
2023-04-11T03:13:18.034Z,75.34
2023-04-11T03:15:45.532Z,75.52
2023-04-11T03:18:13.729Z,75.01
2023-04-11T03:20:44.723Z,75.52
2023-04-11T03:23:14.190Z,75.81
2023-04-11T03:25:41.649Z,75.65
2023-04-11T03:28:09.381Z,75.21
2023-04-11T03:30:40.386Z,75.35
2023-04-11T03:33:09.131Z,75.28
2023-04-11T03:35:36.760Z,74.91
2023-04-11T03:38:04.265Z,73.55
2023-04-11T03:40:31.518Z,72.72
2023-04-11T03:43:09.769Z,72.78
2023-04-11T03:45:37.604Z,74.19
2023-04-11T03:48:09.841Z,74.97
2023-04-11T03:50:51.158Z,76.03
2023-04-11T03:53:23.045Z,76.26
2023-04-11T03:55:55.279Z,76.07
2023-04-11T03:58:29.475Z,76.40
2023-04-11T04:00:56.829Z,76.59
2023-04-11T04:03:24.605Z,76.62
2023-04-11T04:05:52.982Z,76.45
2023-04-11T04:08:22.944Z,76.55
2023-04-11T04:10:51.621Z,76.39
2023-04-11T04:13:19.180Z,76.64
2023-04-11T04:15:58.418Z,75.35
2023-04-11T04:18:28.101Z,75.72
2023-04-11T04:20:55.476Z,76.28
2023-04-11T04:23:26.083Z,76.52
2023-04-11T04:26:16.472Z,76.34
2023-04-11T04:28:50.026Z,76.28
2023-04-11T04:31:25.864Z,75.31
2023-04-11T04:34:10.664Z,75.31
2023-04-11T04:36:49.394Z,76.14
2023-04-11T04:39:25.569Z,75.60
2023-04-11T04:41:58.322Z,75.40
2023-04-11T04:44:31.151Z,75.52
2023-04-11T04:47:03.404Z,74.87
2023-04-11T04:49:30.733Z,74.69
2023-04-11T04:51:58.049Z,74.03
2023-04-11T04:54:25.659Z,73.98
2023-04-11T04:56:54.173Z,73.95
2023-04-11T04:59:21.994Z,73.95
2023-04-11T05:01:55.998Z,74.69
2023-04-11T05:04:29.867Z,73.93
2023-04-11T05:06:59.246Z,73.53
2023-04-11T05:09:28.458Z,73.79
2023-04-11T05:12:07.219Z,73.93
2023-04-11T05:14:37.152Z,73.44
2023-04-11T05:17:04.603Z,72.83
2023-04-11T05:19:32.459Z,73.06
2023-04-11T05:21:59.863Z,72.93
2023-04-11T05:24:27.550Z,72.97
2023-04-11T05:26:57.264Z,73.19
2023-04-11T05:29:24.628Z,73.50
2023-04-11T05:31:51.879Z,73.17
2023-04-11T05:34:19.718Z,73.18
2023-04-11T05:36:49.372Z,73.59
2023-04-11T05:39:16.760Z,73.77
2023-04-11T05:41:43.976Z,73.76
2023-04-11T05:44:11.355Z,73.17
2023-04-11T05:46:38.868Z,73.30
2023-04-11T05:49:06.316Z,73.33
2023-04-11T05:51:33.525Z,74.23
2023-04-11T05:54:00.812Z,74.40
2023-04-11T05:56:28.172Z,73.90
2023-04-11T05:58:55.951Z,73.31
2023-04-11T06:01:23.956Z,72.45
2023-04-11T06:03:51.386Z,72.25
2023-04-11T06:06:18.710Z,71.88
2023-04-11T06:08:46.127Z,72.05
2023-04-11T06:11:13.446Z,72.05
2023-04-11T06:13:40.990Z,71.74
2023-04-11T06:16:08.576Z,71.67
2023-04-11T06:18:35.989Z,71.43
2023-04-11T06:21:03.500Z,70.79
2023-04-11T06:23:30.826Z,69.75
2023-04-11T06:25:58.079Z,69.06
2023-04-11T06:28:25.427Z,68.62
2023-04-11T06:30:52.744Z,69.30
2023-04-11T06:33:20.522Z,69.69
2023-04-11T06:35:47.961Z,69.55
2023-04-11T06:38:15.556Z,69.86
2023-04-11T06:40:42.843Z,70.00
2023-04-11T06:43:10.217Z,70.05
2023-04-11T06:45:37.481Z,70.64
2023-04-11T06:48:05.336Z,70.43
2023-04-11T06:50:32.720Z,70.69
2023-04-11T06:53:00.115Z,70.01
2023-04-11T06:55:27.400Z,69.24
2023-04-11T06:57:54.742Z,68.65
2023-04-11T07:00:22.100Z,68.77
2023-04-11T07:02:50.009Z,69.11
2023-04-11T07:05:17.678Z,67.94
2023-04-11T07:07:45.050Z,68.16
2023-04-11T07:10:12.368Z,67.89
2023-04-11T07:12:39.714Z,67.17
2023-04-11T07:15:07.719Z,66.85
2023-04-11T07:17:35.270Z,66.16
2023-04-11T07:20:02.777Z,65.86
2023-04-11T07:22:30.426Z,65.32
2023-04-11T07:24:57.849Z,64.65
2023-04-11T07:27:25.228Z,64.88
2023-04-11T07:29:52.440Z,64.61
2023-04-11T07:32:19.830Z,64.35
2023-04-11T07:34:47.066Z,64.46
2023-04-11T07:37:14.491Z,64.59
2023-04-11T07:39:41.795Z,63.95
2023-04-11T07:42:09.195Z,63.00
2023-04-11T07:44:36.549Z,60.74
2023-04-11T07:47:03.994Z,59.74
2023-04-11T07:49:31.434Z,59.33
2023-04-11T07:51:58.816Z,60.36
2023-04-11T07:54:26.144Z,61.56
2023-04-11T07:56:53.542Z,60.45
2023-04-11T07:59:20.860Z,59.86
2023-04-11T08:01:48.242Z,59.52
2023-04-11T08:04:15.883Z,58.50
2023-04-11T08:06:43.633Z,56.66
2023-04-11T08:09:11.066Z,55.99
2023-04-11T08:11:39.536Z,56.03
2023-04-11T08:14:06.858Z,56.39
2023-04-11T08:16:34.833Z,56.73
2023-04-11T08:19:02.169Z,56.23
2023-04-11T08:21:29.490Z,54.09
2023-04-11T08:23:57.024Z,53.23
2023-04-11T08:26:24.705Z,52.77
2023-04-11T08:28:51.967Z,51.86
2023-04-11T08:31:19.574Z,52.38
2023-04-11T08:33:47.013Z,51.05
2023-04-11T08:36:14.583Z,48.62
2023-04-11T08:38:42.829Z,47.71
2023-04-11T08:41:10.252Z,46.66
2023-04-11T08:43:39.055Z,46.18
2023-04-11T08:46:11.738Z,47.17
2023-04-11T08:48:39.174Z,46.45
2023-04-11T08:51:06.817Z,47.53
2023-04-11T08:53:36.327Z,48.07
2023-04-11T08:56:03.834Z,49.38
2023-04-11T08:58:32.472Z,50.32
2023-04-11T09:01:32.661Z,53.41
2023-04-11T09:04:01.360Z,53.46
2023-04-11T09:06:30.934Z,53.58
2023-04-11T09:09:02.841Z,54.26
2023-04-11T09:11:30.223Z,54.29
2023-04-11T09:14:10.279Z,54.62
2023-04-11T09:16:37.811Z,54.59
2023-04-11T09:19:05.444Z,54.47
2023-04-11T09:21:34.001Z,54.80
2023-04-11T09:24:16.845Z,54.16
2023-04-11T09:26:44.325Z,54.58
2023-04-11T09:29:11.657Z,54.63
2023-04-11T09:31:43.368Z,55.61
2023-04-11T09:34:11.640Z,54.77
2023-04-11T09:36:39.134Z,54.00
2023-04-11T09:39:19.054Z,53.31
2023-04-11T09:41:47.254Z,53.36
2023-04-11T09:44:14.529Z,53.54
2023-04-11T09:46:58.058Z,53.08
2023-04-11T09:49:25.842Z,52.84
2023-04-11T09:51:53.121Z,52.25
2023-04-11T09:54:23.521Z,51.90
2023-04-11T09:56:50.887Z,52.36
2023-04-11T09:59:18.166Z,52.31
2023-04-11T10:01:47.087Z,52.27
2023-04-11T10:04:14.646Z,52.05
2023-04-11T10:06:50.532Z,51.82
2023-04-11T10:09:18.330Z,51.46
2023-04-11T10:11:45.861Z,51.92
2023-04-11T10:14:38.276Z,50.64
2023-04-11T10:17:21.866Z,51.15
2023-04-11T10:19:51.742Z,50.99
2023-04-11T10:22:51.415Z,50.85
2023-04-11T10:25:19.353Z,52.03
2023-04-11T10:27:50.474Z,52.15
2023-04-11T10:30:17.974Z,51.90
2023-04-11T10:33:17.545Z,52.00
2023-04-11T10:36:05.711Z,52.22
2023-04-11T10:38:48.648Z,52.18
2023-04-11T10:41:22.839Z,52.47
2023-04-11T10:43:50.465Z,52.31
2023-04-11T10:46:24.819Z,52.25
2023-04-11T10:49:04.909Z,52.56
2023-04-11T10:51:33.342Z,52.53
2023-04-11T10:54:01.140Z,52.68
2023-04-11T10:56:45.584Z,53.35
2023-04-11T10:59:31.449Z,53.36
2023-04-11T11:02:00.815Z,51.59
2023-04-11T11:04:38.404Z,52.63
2023-04-11T11:07:08.185Z,52.42
2023-04-11T11:09:35.641Z,53.55
2023-04-11T11:12:12.537Z,52.30
2023-04-11T11:14:41.542Z,53.38
2023-04-11T11:17:09.106Z,52.86
2023-04-11T11:19:36.420Z,54.43
2023-04-11T11:22:04.804Z,54.35
2023-04-11T11:24:32.497Z,53.66
2023-04-11T11:26:59.777Z,54.18
2023-04-11T11:29:38.033Z,54.77
2023-04-11T11:32:06.417Z,55.54
2023-04-11T11:34:34.659Z,54.27
2023-04-11T11:37:04.654Z,54.22
2023-04-11T11:39:32.404Z,53.73
2023-04-11T11:41:59.572Z,55.22
2023-04-11T11:44:28.025Z,53.33
2023-04-11T11:47:05.448Z,52.11
2023-04-11T11:49:52.528Z,51.99
2023-04-11T11:52:43.682Z,52.54
2023-04-11T11:55:20.263Z,52.81
2023-04-11T11:57:48.000Z,52.75
2023-04-11T12:00:16.016Z,54.19
2023-04-11T12:02:44.211Z,54.53
2023-04-11T12:05:11.934Z,53.17
2023-04-11T12:07:39.748Z,54.11
2023-04-11T12:10:12.056Z,54.03
2023-04-11T12:12:41.091Z,53.31
2023-04-11T12:15:16.735Z,53.14
2023-04-11T12:17:51.468Z,52.94
2023-04-11T12:20:26.684Z,53.09
2023-04-11T12:22:55.061Z,52.96
2023-04-11T12:25:22.677Z,52.99
2023-04-11T12:27:50.048Z,52.68
2023-04-11T12:30:17.612Z,52.53
2023-04-11T12:32:45.099Z,53.14
2023-04-11T12:35:12.658Z,52.85
2023-04-11T12:37:40.147Z,52.56
2023-04-11T12:40:12.291Z,53.29
2023-04-11T12:42:53.179Z,51.67
2023-04-11T12:45:23.155Z,52.35
2023-04-11T12:47:50.486Z,51.81
2023-04-11T12:50:17.952Z,52.49
2023-04-11T12:52:45.441Z,52.82
2023-04-11T12:55:13.357Z,53.01
2023-04-11T12:57:41.647Z,52.17
2023-04-11T13:00:11.644Z,52.71
2023-04-11T13:02:43.784Z,52.50
2023-04-11T13:05:14.210Z,52.61
2023-04-11T13:07:42.203Z,52.51
2023-04-11T13:10:09.853Z,52.71
2023-04-11T13:12:41.532Z,52.83
2023-04-11T13:15:12.489Z,51.86
2023-04-11T13:17:39.832Z,52.49
2023-04-11T13:20:09.959Z,53.40
2023-04-11T13:22:38.073Z,53.76
2023-04-11T13:25:06.041Z,54.08
2023-04-11T13:27:33.493Z,53.87
2023-04-11T13:30:00.883Z,53.53
2023-04-11T13:32:28.395Z,53.54
2023-04-11T13:34:55.717Z,53.32
2023-04-11T13:37:23.316Z,53.29
2023-04-11T13:39:50.806Z,53.26
2023-04-11T13:42:18.190Z,54.16
2023-04-11T13:44:45.997Z,54.83
2023-04-11T13:47:13.318Z,55.23
2023-04-11T13:49:40.968Z,55.09
2023-04-11T13:52:08.385Z,54.93
2023-04-11T13:54:35.717Z,54.59
2023-04-11T13:57:07.621Z,54.50
2023-04-11T13:59:35.935Z,55.35
2023-04-11T14:02:03.225Z,55.73
2023-04-11T14:04:31.034Z,55.21
2023-04-11T14:06:58.306Z,56.08
2023-04-11T14:09:25.770Z,57.03
2023-04-11T14:11:53.076Z,58.04
2023-04-11T14:14:20.744Z,58.87
2023-04-11T14:16:48.451Z,59.16
2023-04-11T14:19:16.485Z,59.11
2023-04-11T14:21:43.699Z,59.32
2023-04-11T14:24:11.573Z,59.70
2023-04-11T14:26:38.766Z,60.03
2023-04-11T14:29:06.733Z,60.06
2023-04-11T14:31:34.157Z,61.70
2023-04-11T14:34:01.499Z,64.08
2023-04-11T14:36:28.779Z,65.55
2023-04-11T14:38:56.131Z,66.45
2023-04-11T14:41:23.556Z,67.15
2023-04-11T14:43:50.903Z,66.17
2023-04-11T14:46:18.324Z,67.46
2023-04-11T14:48:45.808Z,67.65
2023-04-11T14:51:13.062Z,68.14
2023-04-11T14:53:40.451Z,66.90
2023-04-11T14:56:08.182Z,66.39
2023-04-11T14:58:35.618Z,66.34
2023-04-11T15:01:03.615Z,67.21
2023-04-11T15:03:31.135Z,68.13
2023-04-11T15:05:58.492Z,68.21
2023-04-11T15:08:25.939Z,68.18
2023-04-11T15:10:54.594Z,68.35
2023-04-11T15:13:22.571Z,68.76
2023-04-11T15:15:49.976Z,69.97
2023-04-11T15:18:24.220Z,70.58
2023-04-11T15:20:52.622Z,71.21
2023-04-11T15:23:20.495Z,70.80
2023-04-11T15:25:54.655Z,70.75
2023-04-11T15:28:22.332Z,70.08
2023-04-11T15:30:51.082Z,69.72
2023-04-11T15:33:18.859Z,69.11
2023-04-11T15:35:46.174Z,68.64
2023-04-11T15:38:14.041Z,67.42
2023-04-11T15:40:41.334Z,67.84
2023-04-11T15:43:09.075Z,67.50
2023-04-11T15:45:37.106Z,67.16
2023-04-11T15:48:04.628Z,65.94
2023-04-11T15:50:32.356Z,65.75
2023-04-11T15:52:59.685Z,65.37
2023-04-11T15:55:26.979Z,65.24
2023-04-11T15:57:54.310Z,65.60
2023-04-11T16:00:24.411Z,65.09
2023-04-11T16:02:52.554Z,65.31
2023-04-11T16:05:20.991Z,65.40
2023-04-11T16:07:49.388Z,65.38
2023-04-11T16:10:16.643Z,65.05
2023-04-11T16:12:44.061Z,65.31
2023-04-11T16:15:11.397Z,65.14
2023-04-11T16:17:39.472Z,65.13
2023-04-11T16:20:12.060Z,65.30
2023-04-11T16:22:39.781Z,65.53
2023-04-11T16:25:07.579Z,65.01
2023-04-11T16:27:34.891Z,64.86
2023-04-11T16:30:05.417Z,63.78
2023-04-11T16:32:32.785Z,60.24
2023-04-11T16:35:00.627Z,58.89
2023-04-11T16:37:27.888Z,55.33
2023-04-11T16:39:55.464Z,53.35
2023-04-11T16:42:22.958Z,53.25
2023-04-11T16:44:50.291Z,51.56
2023-04-11T16:47:17.671Z,51.42
2023-04-11T16:49:45.759Z,51.59
2023-04-11T16:52:14.404Z,50.58
2023-04-11T16:54:41.685Z,51.50
2023-04-11T16:57:09.055Z,55.46
2023-04-11T16:59:36.340Z,56.71
2023-04-11T17:02:03.787Z,57.79
2023-04-11T17:04:31.218Z,58.39
2023-04-11T17:06:58.666Z,59.01
2023-04-11T17:09:26.040Z,59.06
2023-04-11T17:11:53.329Z,58.92
2023-04-11T17:14:21.001Z,58.51
2023-04-11T17:16:48.456Z,58.58
2023-04-11T17:19:15.834Z,58.54
2023-04-11T17:21:43.155Z,58.09
2023-04-11T17:24:10.387Z,58.03
2023-04-11T17:26:37.744Z,58.47
2023-04-11T17:29:06.619Z,58.31
2023-04-11T17:31:34.067Z,58.99
2023-04-11T17:34:02.075Z,58.13
2023-04-11T17:36:30.974Z,57.76
2023-04-11T17:38:58.290Z,58.54
2023-04-11T17:41:25.627Z,58.86
2023-04-11T17:43:56.080Z,58.34
2023-04-11T17:46:23.724Z,58.45
2023-04-11T17:48:51.045Z,58.42
2023-04-11T17:51:18.308Z,58.43
2023-04-11T17:53:45.779Z,57.72
2023-04-11T17:56:13.219Z,57.84
2023-04-11T17:58:44.303Z,58.02
2023-04-11T18:01:11.684Z,58.46
2023-04-11T18:03:40.168Z,58.78
2023-04-11T18:06:07.863Z,58.86
2023-04-11T18:08:49.830Z,58.75
2023-04-11T18:11:18.197Z,58.58
2023-04-11T18:13:47.621Z,58.22
2023-04-11T18:16:16.789Z,58.31
2023-04-11T18:18:44.141Z,58.92
2023-04-11T18:21:11.446Z,59.22
2023-04-11T18:23:38.803Z,58.86
2023-04-11T18:26:06.072Z,59.61
2023-04-11T18:28:33.325Z,59.63
2023-04-11T18:31:01.730Z,59.68
2023-04-11T18:33:29.210Z,59.67
2023-04-11T18:35:56.686Z,60.25
2023-04-11T18:38:24.040Z,60.86
2023-04-11T18:40:55.394Z,61.15
2023-04-11T18:43:24.698Z,60.47
2023-04-11T18:45:52.002Z,60.28
2023-04-11T18:48:19.486Z,60.72
2023-04-11T18:50:48.686Z,61.00
2023-04-11T18:53:16.337Z,61.38
2023-04-11T18:55:43.636Z,61.39
2023-04-11T18:58:14.246Z,61.23
2023-04-11T19:00:43.881Z,62.04
2023-04-11T19:03:15.848Z,61.65
2023-04-11T19:05:44.075Z,62.04
2023-04-11T19:08:11.528Z,61.68
2023-04-11T19:10:38.925Z,61.91
2023-04-11T19:13:06.367Z,62.08
2023-04-11T19:15:33.720Z,62.47
2023-04-11T19:18:01.899Z,62.78
2023-04-11T19:20:29.673Z,63.04
2023-04-11T19:22:57.257Z,63.03
2023-04-11T19:25:25.042Z,63.17
2023-04-11T19:27:52.407Z,63.15
2023-04-11T19:30:19.764Z,62.06
2023-04-11T19:32:47.838Z,62.36
2023-04-11T19:35:15.627Z,62.38
2023-04-11T19:37:42.971Z,62.88
2023-04-11T19:40:11.255Z,62.72
2023-04-11T19:42:39.940Z,62.52
2023-04-11T19:45:09.423Z,62.37
2023-04-11T19:47:36.849Z,61.32
2023-04-11T19:50:04.545Z,61.00
2023-04-11T19:52:31.875Z,59.92
2023-04-11T19:54:59.277Z,58.87
2023-04-11T19:57:26.787Z,58.48
2023-04-11T19:59:54.031Z,58.23
2023-04-11T20:02:21.522Z,58.47
2023-04-11T20:04:49.619Z,58.79
2023-04-11T20:07:17.786Z,58.68
2023-04-11T20:09:45.119Z,58.72
2023-04-11T20:12:13.123Z,58.88
2023-04-11T20:14:40.388Z,59.56
2023-04-11T20:17:08.741Z,59.44
2023-04-11T20:19:37.757Z,59.18
2023-04-11T20:22:05.101Z,59.15
2023-04-11T20:24:33.247Z,60.05
2023-04-11T20:27:00.929Z,60.09
2023-04-11T20:29:32.732Z,60.04
2023-04-11T20:32:00.218Z,59.93
2023-04-11T20:34:27.544Z,60.25
2023-04-11T20:36:55.919Z,60.24
2023-04-11T20:39:23.343Z,60.10
2023-04-11T20:41:52.402Z,59.47
2023-04-11T20:44:23.776Z,59.62
2023-04-11T20:46:51.312Z,59.88
2023-04-11T20:49:18.601Z,60.38
2023-04-11T20:51:49.810Z,60.52
2023-04-11T20:54:17.146Z,60.58
2023-04-11T20:56:44.402Z,61.09
2023-04-11T20:59:14.517Z,61.16
2023-04-11T21:01:42.012Z,61.28
2023-04-11T21:04:10.055Z,61.45
2023-04-11T21:06:37.502Z,61.57
2023-04-11T21:09:05.694Z,61.60
2023-04-11T21:11:33.156Z,61.83
2023-04-11T21:14:00.521Z,61.87
2023-04-11T21:16:28.012Z,62.06
2023-04-11T21:18:55.402Z,62.31
2023-04-11T21:21:22.782Z,62.62
2023-04-11T21:23:49.986Z,62.95
2023-04-11T21:26:17.306Z,63.05
2023-04-11T21:28:44.537Z,63.14
2023-04-11T21:31:11.911Z,63.22
2023-04-11T21:33:39.204Z,63.15
2023-04-11T21:36:06.904Z,62.75
2023-04-11T21:38:34.164Z,62.17
2023-04-11T21:41:01.501Z,61.94
2023-04-11T21:43:28.776Z,61.81
2023-04-11T21:45:56.076Z,61.58
2023-04-11T21:48:23.367Z,61.58
2023-04-11T21:50:50.654Z,61.98
2023-04-11T21:53:18.439Z,61.79
2023-04-11T21:55:46.748Z,61.71
2023-04-11T21:58:28.021Z,61.28
2023-04-11T22:00:56.689Z,60.70
2023-04-11T22:03:24.320Z,59.93
2023-04-11T22:05:53.338Z,59.14
2023-04-11T22:08:22.637Z,58.50
2023-04-11T22:10:50.910Z,57.84
2023-04-11T22:13:19.062Z,57.90
2023-04-11T22:15:46.726Z,57.09
2023-04-11T22:18:14.065Z,56.97
2023-04-11T22:20:43.664Z,56.81
2023-04-11T22:23:13.259Z,55.06
2023-04-11T22:25:42.279Z,55.22
2023-04-11T22:28:18.445Z,54.83
2023-04-11T22:30:46.726Z,54.03
2023-04-11T22:33:14.083Z,53.90
2023-04-11T22:35:43.984Z,53.53
2023-04-11T22:38:11.634Z,53.70
2023-04-11T22:40:41.885Z,53.50
2023-04-11T22:43:10.051Z,53.31
2023-04-11T22:45:37.412Z,53.18
2023-04-11T22:48:06.075Z,53.69
2023-04-11T22:50:36.664Z,53.68
2023-04-11T22:53:04.069Z,53.36
2023-04-11T22:55:34.349Z,53.07
2023-04-11T22:58:02.371Z,53.41
2023-04-11T23:00:31.494Z,53.78
2023-04-11T23:03:00.013Z,54.57
2023-04-11T23:05:27.437Z,54.60
2023-04-11T23:07:54.775Z,53.86
2023-04-11T23:10:22.179Z,54.44
2023-04-11T23:12:49.739Z,54.29
2023-04-11T23:15:17.552Z,54.44
2023-04-11T23:17:45.036Z,54.76
2023-04-11T23:20:13.860Z,54.33
2023-04-11T23:22:42.641Z,54.73
2023-04-11T23:25:15.199Z,54.86
2023-04-11T23:27:43.612Z,54.87
2023-04-11T23:30:15.128Z,55.06
2023-04-11T23:32:43.006Z,55.13
2023-04-11T23:35:10.957Z,55.84
2023-04-11T23:37:38.416Z,55.42
2023-04-11T23:40:10.728Z,55.70
2023-04-11T23:42:38.901Z,55.74
2023-04-11T23:45:07.246Z,55.84
2023-04-11T23:47:34.905Z,55.97
2023-04-11T23:50:02.867Z,55.61
2023-04-11T23:52:30.554Z,55.82
2023-04-11T23:54:58.523Z,56.14
2023-04-11T23:57:26.000Z,55.80
2023-04-11T23:59:53.674Z,55.64
